Time;durP1;ratioP1;P1;durP2;ratioP2;P2;SDS_P1;SDS_P2;PMS_P1;PMS_P2;Temp;Humidity;BMP_temperature;BMP_pressure;BME280_temperature;BME280_humidity;BME280_pressure;Samples;Min_cycle;Max_cycle;Signal;HPM_P1;HPM_P2
2021/12/26 00:01:29;;;;;;;1.98;1.83;;;-5.10;99.90;;;;;;5035500;28;20052;-63
2021/12/26 00:03:55;;;;;;;2.92;1.58;;;-5.20;99.90;;;;;;5036181;28;20083;-63
2021/12/26 00:06:26;;;;;;;3.38;2.00;;;-3.50;99.90;;;;;;5036857;28;20045;-64
2021/12/26 00:08:53;;;;;;;2.53;1.88;;;-5.40;99.90;;;;;;5036562;28;20132;-64
2021/12/26 00:11:19;;;;;;;2.53;2.03;;;-5.40;99.90;;;;;;5018163;28;20711;-64
2021/12/26 00:13:45;;;;;;;3.63;2.35;;;-5.40;99.90;;;;;;5018944;28;20056;-64
2021/12/26 00:16:12;;;;;;;4.97;2.17;;;-5.50;99.90;;;;;;5018454;28;20858;-64
2021/12/26 00:18:44;;;;;;;4.00;2.63;;;-5.50;99.90;;;;;;5036153;28;20324;-64
2021/12/26 00:21:11;;;;;;;3.78;2.28;;;-5.50;99.90;;;;;;5037166;28;20056;-64
2021/12/26 00:23:37;;;;;;;5.20;2.78;;;-5.50;99.90;;;;;;5036855;28;20052;-64
2021/12/26 00:26:03;;;;;;;5.18;2.67;;;-5.70;99.90;;;;;;5037430;28;20041;-64
2021/12/26 00:28:29;;;;;;;2.97;2.55;;;-5.70;99.90;;;;;;5036941;28;20048;-64
2021/12/26 00:30:55;;;;;;;2.92;2.63;;;-5.70;99.90;;;;;;5036387;28;20068;-64
2021/12/26 00:33:21;;;;;;;2.85;2.60;;;-5.70;99.90;;;;;;5036923;28;20641;-64
2021/12/26 00:35:47;;;;;;;3.78;2.47;;;-5.70;99.90;;;;;;5030112;28;20049;-63
2021/12/26 00:38:13;;;;;;;3.95;2.50;;;-5.70;99.90;;;;;;5036777;28;20102;-64
2021/12/26 00:40:39;;;;;;;5.75;3.33;;;-5.70;99.90;;;;;;5037185;28;20459;-64
2021/12/26 00:43:05;;;;;;;5.22;2.90;;;-5.70;99.90;;;;;;5036943;28;20056;-64
2021/12/26 00:45:30;;;;;;;3.70;3.33;;;-5.60;99.90;;;;;;5036051;28;20055;-64
2021/12/26 00:47:56;;;;;;;3.60;3.13;;;-5.60;99.90;;;;;;5036896;28;20076;-64
2021/12/26 00:50:29;;;;;;;5.18;2.63;;;-5.50;99.90;;;;;;5036466;28;20059;-64
2021/12/26 00:52:55;;;;;;;2.78;2.55;;;-5.50;99.90;;;;;;5036423;28;20076;-64
2021/12/26 00:55:22;;;;;;;3.35;2.63;;;-5.40;99.90;;;;;;5036037;28;20230;-64
2021/12/26 00:57:48;;;;;;;5.78;2.63;;;-5.40;99.90;;;;;;5018246;28;20419;-64
2021/12/26 01:00:21;;;;;;;2.20;2.00;;;-5.40;99.90;;;;;;5035712;28;20106;-63
2021/12/26 01:02:47;;;;;;;2.72;1.85;;;-5.40;99.90;;;;;;5031808;28;20180;-64
2021/12/26 01:05:13;;;;;;;4.72;2.60;;;-5.40;99.90;;;;;;5035079;28;20128;-64
2021/12/26 01:07:53;;;;;;;3.42;2.22;;;-5.40;99.90;;;;;;5034816;28;20037;-64
2021/12/26 01:10:20;;;;;;;2.10;1.95;;;-5.40;99.90;;;;;;5035106;28;20041;-63
2021/12/26 01:12:47;;;;;;;4.43;2.35;;;-5.40;99.90;;;;;;5030972;28;20107;-64
2021/12/26 01:15:13;;;;;;;2.53;1.95;;;-5.30;99.90;;;;;;5036327;28;20060;-64
2021/12/26 01:17:43;;;;;;;2.70;2.40;;;-5.30;99.90;;;;;;5038390;28;20041;-63
2021/12/26 01:20:26;;;;;;;2.08;1.90;;;-5.30;99.90;;;;;;5031860;28;20048;-64
2021/12/26 01:22:52;;;;;;;3.75;2.20;;;-5.30;99.90;;;;;;5016550;28;20063;-63
2021/12/26 01:25:18;;;;;;;2.30;2.20;;;-5.20;99.90;;;;;;5038768;28;20400;-63
2021/12/26 01:27:43;;;;;;;4.32;2.42;;;-5.20;99.90;;;;;;5019959;28;20407;-63
2021/12/26 01:30:09;;;;;;;2.33;2.13;;;-5.20;99.90;;;;;;5037905;28;20048;-63
2021/12/26 01:32:35;;;;;;;2.33;1.65;;;-5.20;99.90;;;;;;5038385;28;20045;-63
2021/12/26 01:35:01;;;;;;;3.22;2.20;;;-5.20;99.90;;;;;;5037757;28;20045;-63
2021/12/26 01:37:26;;;;;;;5.63;2.78;;;-5.30;99.90;;;;;;5038072;28;20056;-63
2021/12/26 01:39:52;;;;;;;6.07;2.10;;;-5.30;99.90;;;;;;5037787;28;20057;-63
2021/12/26 01:42:17;;;;;;;2.97;1.90;;;-5.30;99.90;;;;;;5037614;28;20052;-63
2021/12/26 01:44:43;;;;;;;3.13;1.65;;;-5.20;99.90;;;;;;5038458;28;20056;-63
2021/12/26 01:47:09;;;;;;;3.15;2.80;;;-5.20;99.90;;;;;;5022548;28;20055;-63
2021/12/26 01:49:34;;;;;;;4.07;2.08;;;-5.30;99.90;;;;;;5023879;28;20128;-63
2021/12/26 01:52:04;;;;;;;2.35;2.08;;;-5.30;99.90;;;;;;5023984;28;20049;-63
2021/12/26 01:54:37;;;;;;;4.28;1.70;;;-5.30;99.90;;;;;;5041725;28;20124;-63
2021/12/26 01:57:03;;;;;;;;;;;-5.30;99.90;;;;;;5023304;28;20053;-63
2021/12/26 01:59:30;;;;;;;3.50;2.17;;;-5.40;99.90;;;;;;5041705;28;19925;-63
2021/12/26 02:02:00;;;;;;;1.90;1.70;;;-5.40;99.90;;;;;;5041426;28;20084;-63
2021/12/26 02:04:28;;;;;;;3.55;2.22;;;-5.40;99.90;;;;;;5041802;28;20052;-63
2021/12/26 02:07:02;;;;;;;4.40;1.85;;;-5.40;99.90;;;;;;5023579;28;20061;-63
2021/12/26 02:09:27;;;;;;;3.47;2.08;;;-5.50;99.90;;;;;;5041081;28;20052;-63
2021/12/26 02:11:53;;;;;;;2.13;1.92;;;-5.60;99.90;;;;;;5022398;28;20923;-63
2021/12/26 02:14:20;;;;;;;3.78;2.55;;;-5.50;99.90;;;;;;5041374;28;20048;-63
2021/12/26 02:16:46;;;;;;;2.40;2.20;;;-5.50;99.90;;;;;;5040884;28;20396;-63
2021/12/26 02:19:12;;;;;;;3.35;1.90;;;-5.50;99.90;;;;;;5041318;28;20055;-63
2021/12/26 02:21:58;;;;;;;1.50;1.40;;;-5.70;99.90;;;;;;5022429;28;20053;-63
2021/12/26 02:24:30;;;;;;;2.05;1.67;;;-5.70;99.90;;;;;;5040893;28;20427;-63
2021/12/26 02:29:41;;;;;;;2.60;1.98;;;-5.70;99.90;;;;;;5039792;28;20068;-63
2021/12/26 02:32:08;;;;;;;2.00;1.70;;;-5.70;99.90;;;;;;5041249;28;20836;-63
2021/12/26 02:34:34;;;;;;;2.65;2.45;;;-5.70;99.90;;;;;;5042072;28;20515;-63
2021/12/26 02:37:00;;;;;;;2.42;1.80;;;-5.70;99.90;;;;;;5041453;28;20053;-63
2021/12/26 02:39:26;;;;;;;1.20;1.13;;;-5.70;99.90;;;;;;5042038;28;20041;-63
2021/12/26 02:41:51;;;;;;;2.53;1.52;;;-5.70;99.90;;;;;;5041361;28;20052;-63
2021/12/26 02:44:17;;;;;;;2.97;2.17;;;-5.70;99.90;;;;;;5039687;28;20051;-63
2021/12/26 02:46:43;;;;;;;3.78;2.10;;;-5.60;99.90;;;;;;5041114;28;20537;-63
2021/12/26 02:49:09;;;;;;;3.35;2.00;;;-5.50;99.90;;;;;;5041359;28;20116;-63
2021/12/26 02:51:35;;;;;;;3.45;2.22;;;-5.60;99.90;;;;;;5040368;28;20090;-63
2021/12/26 02:54:01;;;;;;;2.30;1.45;;;-5.70;99.90;;;;;;5041142;28;20040;-63
2021/12/26 02:56:28;;;;;;;3.25;1.90;;;-5.70;99.90;;;;;;5041802;28;20048;-63
2021/12/26 02:58:54;;;;;;;2.10;1.95;;;-5.70;99.90;;;;;;5039642;28;20055;-63
2021/12/26 03:01:24;;;;;;;2.72;1.85;;;-5.70;99.90;;;;;;5040651;28;20751;-63
2021/12/26 03:03:50;;;;;;;3.30;1.77;;;-5.70;99.90;;;;;;5040591;28;20047;-63
2021/12/26 03:06:37;;;;;;;2.80;2.13;;;-5.70;99.90;;;;;;5040713;28;20858;-64
2021/12/26 03:09:04;;;;;;;2.00;1.80;;;-5.70;99.90;;;;;;5040925;28;20037;-63
2021/12/26 03:11:30;;;;;;;2.80;1.80;;;-5.70;99.90;;;;;;5040881;28;20530;-64
2021/12/26 03:13:55;;;;;;;2.88;1.75;;;-5.70;99.90;;;;;;5040071;28;20056;-63
2021/12/26 03:16:21;;;;;;;2.53;2.03;;;-5.70;99.90;;;;;;5041392;28;20076;-63
2021/12/26 03:18:47;;;;;;;2.28;1.30;;;-5.80;99.90;;;;;;5041105;28;20064;-63
2021/12/26 03:21:12;;;;;;;4.97;1.98;;;-5.90;99.90;;;;;;5022118;28;20045;-63
2021/12/26 03:23:38;;;;;;;1.80;1.70;;;-5.90;99.90;;;;;;5041215;28;20076;-64
2021/12/26 03:26:06;;;;;;;2.42;1.50;;;-5.90;99.90;;;;;;5041186;28;20105;-64
2021/12/26 03:28:32;;;;;;;2.00;1.90;;;-5.90;99.90;;;;;;5040427;28;20842;-64
2021/12/26 03:30:59;;;;;;;4.43;1.65;;;-5.80;99.90;;;;;;5040238;28;20048;-63
2021/12/26 03:33:25;;;;;;;3.30;2.83;;;-5.10;99.90;;;;;;5040102;28;20044;-64
2021/12/26 03:35:52;;;;;;;3.78;1.98;;;-5.90;99.90;;;;;;5040275;28;20051;-63
2021/12/26 03:38:18;;;;;;;3.75;1.73;;;-5.90;99.90;;;;;;5039690;28;20079;-63
2021/12/26 03:40:45;;;;;;;2.50;2.30;;;-5.90;99.90;;;;;;5039059;28;20710;-64
2021/12/26 03:43:12;;;;;;;3.33;2.28;;;-5.90;99.90;;;;;;5040335;28;20056;-64
2021/12/26 03:45:38;;;;;;;3.63;2.03;;;-5.90;99.90;;;;;;5039335;28;20392;-64
2021/12/26 03:48:04;;;;;;;3.35;1.80;;;-5.90;99.90;;;;;;5020632;28;20416;-64
2021/12/26 03:50:32;;;;;;;1.80;1.65;;;-5.90;99.90;;;;;;5022170;28;20044;-64
2021/12/26 03:52:58;;;;;;;2.53;2.05;;;-5.90;99.90;;;;;;5038937;28;20048;-64
2021/12/26 03:55:27;;;;;;;2.75;1.70;;;-5.90;99.90;;;;;;5020293;28;20094;-64
2021/12/26 03:57:54;;;;;;;2.53;2.15;;;-5.90;99.90;;;;;;5033636;28;20036;-64
2021/12/26 04:00:22;;;;;;;1.92;1.83;;;-5.90;99.90;;;;;;5039074;28;20087;-64
2021/12/26 04:02:48;;;;;;;2.88;1.83;;;-6.00;99.90;;;;;;5038679;28;20883;-63
2021/12/26 04:05:14;;;;;;;4.78;2.13;;;-6.00;99.90;;;;;;5040058;28;20075;-64
2021/12/26 04:07:41;;;;;;;1.70;1.48;;;-6.00;99.90;;;;;;5039856;28;20041;-64
2021/12/26 04:10:08;;;;;;;3.50;2.30;;;-6.00;99.90;;;;;;5038948;28;20037;-64
2021/12/26 04:12:42;;;;;;;6.13;2.33;;;-5.90;99.90;;;;;;5039892;28;20060;-64
2021/12/26 04:15:11;;;;;;;3.35;1.90;;;-5.90;99.90;;;;;;5040196;28;20041;-64
2021/12/26 04:17:37;;;;;;;3.88;2.38;;;-5.90;99.90;;;;;;5039062;28;20592;-64
2021/12/26 04:20:05;;;;;;;2.10;1.95;;;-5.90;99.90;;;;;;5039783;28;20045;-64
2021/12/26 04:22:31;;;;;;;2.45;2.25;;;-5.90;99.90;;;;;;5033386;28;20122;-64
2021/12/26 04:24:57;;;;;;;2.58;1.83;;;-5.90;99.90;;;;;;5021951;28;20053;-64
2021/12/26 04:27:24;;;;;;;2.35;2.15;;;-5.90;99.90;;;;;;5039701;28;20041;-64
2021/12/26 04:29:50;;;;;;;2.47;1.90;;;-6.00;99.90;;;;;;5038527;28;20559;-64
2021/12/26 04:32:16;;;;;;;2.17;1.90;;;-6.00;99.90;;;;;;5040009;28;20891;-64
2021/12/26 04:34:42;;;;;;;2.20;1.65;;;-6.00;99.90;;;;;;5039891;28;20045;-64
2021/12/26 04:37:07;;;;;;;4.07;2.10;;;-5.90;99.90;;;;;;5039338;28;20108;-64
2021/12/26 04:39:33;;;;;;;1.80;1.70;;;-4.10;99.90;;;;;;5021619;28;20533;-64
2021/12/26 04:41:59;;;;;;;2.45;2.05;;;-5.90;99.90;;;;;;5039531;28;20183;-64
2021/12/26 04:44:26;;;;;;;3.70;3.17;;;-5.90;99.90;;;;;;5039106;28;20045;-64
2021/12/26 04:46:51;;;;;;;4.22;3.33;;;-6.00;99.90;;;;;;5039228;28;20133;-64
2021/12/26 04:49:17;;;;;;;2.70;2.25;;;-6.00;99.90;;;;;;5038770;28;20059;-63
2021/12/26 04:51:43;;;;;;;3.05;2.30;;;-6.00;99.90;;;;;;5038344;28;20061;-64
2021/12/26 04:54:08;;;;;;;2.00;1.90;;;-6.00;99.90;;;;;;5038652;28;20056;-64
2021/12/26 04:56:34;;;;;;;2.20;1.80;;;-6.10;99.90;;;;;;5038742;28;20553;-64
2021/12/26 04:59:00;;;;;;;4.07;1.90;;;-6.10;99.90;;;;;;5038484;28;20037;-64
2021/12/26 05:01:26;;;;;;;3.95;2.50;;;-6.20;99.90;;;;;;5038670;28;20052;-64
2021/12/26 05:03:52;;;;;;;5.65;1.88;;;-6.20;99.90;;;;;;5038354;28;20049;-64
2021/12/26 05:06:18;;;;;;;3.15;2.20;;;-6.30;99.90;;;;;;5038194;28;20074;-64
2021/12/26 05:08:43;;;;;;;3.97;2.53;;;-6.40;99.90;;;;;;5038535;28;20838;-64
2021/12/26 05:11:09;;;;;;;3.30;2.53;;;-6.40;99.90;;;;;;5038540;28;20045;-64
2021/12/26 05:13:34;;;;;;;2.30;1.75;;;-6.70;99.90;;;;;;5038401;28;20130;-64
2021/12/26 05:16:00;;;;;;;2.75;2.35;;;-6.40;99.90;;;;;;5039135;28;20067;-64
2021/12/26 05:18:26;;;;;;;2.15;1.65;;;-6.40;99.90;;;;;;5039034;28;20056;-64
2021/12/26 05:20:51;;;;;;;2.70;1.98;;;-6.30;99.90;;;;;;5038639;28;20567;-64
2021/12/26 05:23:17;;;;;;;3.05;2.05;;;-6.20;99.90;;;;;;5043328;28;20132;-64
2021/12/26 05:25:42;;;;;;;2.38;1.88;;;-6.20;99.90;;;;;;5043012;28;20048;-64
2021/12/26 05:28:08;;;;;;;2.05;1.88;;;-6.20;99.90;;;;;;5042191;28;20430;-64
2021/12/26 05:30:34;;;;;;;2.53;2.05;;;-6.20;99.90;;;;;;5042469;28;20048;-64
2021/12/26 05:32:59;;;;;;;3.70;2.38;;;-6.10;99.90;;;;;;5042030;28;20051;-64
2021/12/26 05:35:26;;;;;;;5.13;2.42;;;-6.10;99.90;;;;;;5042746;28;20044;-64
2021/12/26 05:37:51;;;;;;;4.35;2.85;;;-6.10;99.90;;;;;;5024145;28;20057;-65
2021/12/26 05:40:17;;;;;;;4.30;3.08;;;-6.10;99.90;;;;;;5023404;28;20068;-65
2021/12/26 05:42:43;;;;;;;3.65;2.47;;;-6.10;99.90;;;;;;5042255;28;20267;-65
2021/12/26 05:45:10;;;;;;;4.43;2.75;;;-6.10;99.90;;;;;;5024154;28;20120;-65
2021/12/26 05:47:36;;;;;;;3.72;3.25;;;-6.10;99.90;;;;;;5041601;28;20156;-65
2021/12/26 05:50:04;;;;;;;2.15;1.75;;;-6.10;99.90;;;;;;5042241;28;20067;-65
2021/12/26 05:52:30;;;;;;;3.63;2.47;;;-6.10;99.90;;;;;;5023761;28;20460;-65
2021/12/26 05:54:56;;;;;;;4.03;2.22;;;-6.10;99.90;;;;;;5041886;28;20049;-65
2021/12/26 05:57:22;;;;;;;4.35;2.10;;;-4.50;99.90;;;;;;5042452;28;20059;-65
2021/12/26 05:59:47;;;;;;;3.50;2.17;;;-6.10;99.90;;;;;;5024898;28;20063;-65
2021/12/26 06:02:13;;;;;;;2.63;2.42;;;-6.10;99.90;;;;;;5042016;28;20103;-65
2021/12/26 06:04:39;;;;;;;2.28;2.08;;;-6.10;99.90;;;;;;5042889;28;20118;-65
2021/12/26 06:07:05;;;;;;;3.58;2.60;;;-6.10;99.90;;;;;;5024362;28;20041;-65
2021/12/26 06:09:31;;;;;;;2.17;1.92;;;-6.10;99.90;;;;;;5041628;28;20045;-65
2021/12/26 06:11:57;;;;;;;3.03;2.28;;;-6.10;99.90;;;;;;5042504;28;20055;-65
2021/12/26 06:14:22;;;;;;;2.85;2.47;;;-6.10;99.90;;;;;;5042638;28;20385;-65
2021/12/26 06:16:48;;;;;;;3.53;2.38;;;-6.10;99.90;;;;;;5041608;28;20134;-66
2021/12/26 06:19:14;;;;;;;4.45;2.97;;;-6.10;99.90;;;;;;5042211;28;20049;-65
2021/12/26 06:21:39;;;;;;;2.72;2.17;;;-6.10;99.90;;;;;;5042319;28;20060;-66
2021/12/26 06:24:05;;;;;;;5.80;2.13;;;-6.10;99.90;;;;;;5023598;28;20443;-65
2021/12/26 06:26:32;;;;;;;2.92;2.72;;;-6.20;99.90;;;;;;5041849;28;20085;-66
2021/12/26 06:28:58;;;;;;;2.50;2.33;;;-6.20;99.90;;;;;;5035415;28;20459;-65
2021/12/26 06:31:24;;;;;;;2.28;2.08;;;-6.20;99.90;;;;;;5041089;28;20083;-65
2021/12/26 06:33:50;;;;;;;5.40;2.67;;;-6.20;99.90;;;;;;5022299;28;20759;-65
2021/12/26 06:36:16;;;;;;;2.58;2.38;;;-6.20;99.90;;;;;;5041569;28;20064;-66
2021/12/26 06:38:43;;;;;;;2.42;2.22;;;-6.20;99.90;;;;;;5041557;28;20045;-66
2021/12/26 06:41:09;;;;;;;3.00;1.63;;;-6.30;99.90;;;;;;5041127;28;20052;-66
2021/12/26 06:43:35;;;;;;;4.32;2.47;;;-6.60;99.90;;;;;;5023050;28;20051;-66
2021/12/26 06:46:01;;;;;;;3.17;2.65;;;-6.30;99.90;;;;;;5023674;28;20669;-66
2021/12/26 06:48:27;;;;;;;3.28;2.88;;;-6.30;99.90;;;;;;5041863;28;20049;-65
2021/12/26 06:50:53;;;;;;;2.75;2.55;;;-6.30;99.90;;;;;;5040850;28;20052;-66
2021/12/26 06:53:19;;;;;;;7.10;3.22;;;-6.30;99.90;;;;;;5041682;28;20044;-65
2021/12/26 06:55:46;;;;;;;3.08;2.50;;;-6.30;99.90;;;;;;5041671;28;20076;-66
2021/12/26 06:58:13;;;;;;;3.60;2.40;;;-6.30;99.90;;;;;;5040700;28;20045;-66
2021/12/26 07:00:39;;;;;;;5.82;2.50;;;-6.30;99.90;;;;;;5041527;28;20052;-66
2021/12/26 07:03:04;;;;;;;4.80;3.17;;;-5.60;99.90;;;;;;5041464;28;20045;-66
2021/12/26 07:05:30;;;;;;;4.07;2.50;;;-6.30;99.90;;;;;;5023031;28;20079;-66
2021/12/26 07:07:55;;;;;;;2.45;2.20;;;-6.30;99.90;;;;;;5042012;28;20152;-66
2021/12/26 07:10:21;;;;;;;3.60;2.15;;;-6.30;99.90;;;;;;5041742;28;21150;-66
2021/12/26 07:12:47;;;;;;;4.68;3.05;;;-6.30;99.90;;;;;;5040769;28;20045;-65
2021/12/26 07:15:13;;;;;;;4.32;2.70;;;-6.30;99.90;;;;;;5040849;28;20068;-66
2021/12/26 07:17:41;;;;;;;6.53;2.90;;;-6.30;99.90;;;;;;5041513;28;20087;-66
2021/12/26 07:20:08;;;;;;;3.83;2.88;;;-6.50;99.90;;;;;;5040199;28;20644;-66
2021/12/26 07:22:34;;;;;;;4.13;3.33;;;-6.30;99.90;;;;;;5040993;28;20143;-65
2021/12/26 07:24:59;;;;;;;5.05;3.17;;;-6.20;99.90;;;;;;5041143;28;20045;-67
2021/12/26 07:27:25;;;;;;;3.40;2.53;;;-6.20;99.90;;;;;;5040575;28;20794;-66
2021/12/26 07:29:51;;;;;;;3.03;2.72;;;-6.20;99.90;;;;;;5040411;28;20045;-65
2021/12/26 07:32:16;;;;;;;2.65;2.42;;;-6.20;99.90;;;;;;5040744;28;20438;-66
2021/12/26 07:34:42;;;;;;;4.50;2.85;;;-6.20;99.90;;;;;;5021970;28;20049;-66
2021/12/26 07:37:08;;;;;;;2.63;2.42;;;-6.20;99.90;;;;;;5041078;28;20052;-64
2021/12/26 07:39:35;;;;;;;4.63;2.55;;;-6.20;99.90;;;;;;5033355;28;20132;-64
2021/12/26 07:42:01;;;;;;;3.65;2.78;;;-6.10;99.90;;;;;;5022355;28;20092;-64
2021/12/26 07:44:27;;;;;;;3.10;2.83;;;-6.10;99.90;;;;;;5039958;28;20903;-64
2021/12/26 07:46:52;;;;;;;3.15;2.28;;;-6.10;99.90;;;;;;5021540;28;20036;-64
2021/12/26 07:49:22;;;;;;;2.80;2.15;;;-6.10;99.90;;;;;;5040545;28;20098;-64
2021/12/26 07:51:49;;;;;;;4.78;2.80;;;-6.00;99.90;;;;;;5040409;28;20051;-64
2021/12/26 07:54:16;;;;;;;6.63;2.80;;;-6.00;99.90;;;;;;5039327;28;20033;-64
2021/12/26 07:56:43;;;;;;;4.40;3.05;;;-6.00;99.90;;;;;;5040138;28;20045;-64
2021/12/26 07:59:08;;;;;;;2.85;2.42;;;-6.00;99.90;;;;;;5040082;28;20045;-64
2021/12/26 08:01:34;;;;;;;4.40;3.45;;;-5.90;99.90;;;;;;5039735;28;20415;-64
2021/12/26 08:04:02;;;;;;;4.10;3.00;;;-5.90;99.90;;;;;;5039786;28;20037;-64
2021/12/26 08:06:29;;;;;;;3.78;2.75;;;-5.90;99.90;;;;;;5039438;28;20056;-64
2021/12/26 08:08:55;;;;;;;3.58;2.83;;;-5.80;99.90;;;;;;5038846;28;20052;-64
2021/12/26 08:11:22;;;;;;;4.80;2.80;;;-5.80;99.90;;;;;;5039397;28;20114;-64
2021/12/26 08:13:47;;;;;;;3.35;2.50;;;-5.80;99.90;;;;;;5039014;28;20490;-65
2021/12/26 08:16:14;;;;;;;2.97;2.78;;;-5.80;99.90;;;;;;5036063;28;20056;-65
2021/12/26 08:18:40;;;;;;;3.78;3.00;;;-5.80;99.90;;;;;;5038691;28;20047;-65
2021/12/26 08:21:06;;;;;;;3.88;2.95;;;-5.80;99.90;;;;;;5039029;28;20052;-64
2021/12/26 08:23:33;;;;;;;3.85;2.67;;;-5.70;99.90;;;;;;5038540;28;20048;-64
2021/12/26 08:25:59;;;;;;;3.72;3.00;;;-5.70;99.90;;;;;;5039107;28;20935;-64
2021/12/26 08:28:24;;;;;;;2.55;2.35;;;-5.60;99.90;;;;;;5039095;28;20053;-65
2021/12/26 08:30:50;;;;;;;4.07;3.45;;;-5.60;99.90;;;;;;5037917;28;20053;-65
2021/12/26 08:33:16;;;;;;;6.53;2.72;;;-5.60;99.90;;;;;;5038766;28;20045;-64
2021/12/26 08:35:43;;;;;;;6.32;2.67;;;-5.50;99.90;;;;;;5021087;28;20081;-65
2021/12/26 08:38:09;;;;;;;4.88;3.65;;;-5.40;99.90;;;;;;5039088;28;20083;-65
2021/12/26 08:40:35;;;;;;;3.90;2.92;;;-5.40;99.90;;;;;;5038978;28;20440;-65
2021/12/26 08:43:01;;;;;;;6.40;2.75;;;-5.30;99.90;;;;;;5019061;28;20134;-65
2021/12/26 08:45:27;;;;;;;2.85;2.30;;;-5.30;99.90;;;;;;5035334;28;20044;-64
2021/12/26 08:47:56;;;;;;;3.42;2.83;;;-5.30;99.90;;;;;;5037614;28;20040;-65
2021/12/26 08:50:25;;;;;;;3.28;2.97;;;-5.20;99.90;;;;;;5019166;28;20142;-64
2021/12/26 08:52:51;;;;;;;5.13;3.30;;;-5.20;99.90;;;;;;5037583;28;20123;-64
2021/12/26 08:55:17;;;;;;;4.03;3.60;;;-5.20;99.90;;;;;;5034517;28;20052;-64
2021/12/26 08:57:43;;;;;;;6.15;3.90;;;-5.10;99.90;;;;;;5036894;28;20053;-64
2021/12/26 09:00:11;;;;;;;5.38;3.20;;;-5.10;99.90;;;;;;5037718;28;20072;-64
2021/12/26 09:02:37;;;;;;;4.57;3.38;;;-5.00;99.90;;;;;;5038043;28;20068;-64
2021/12/26 09:05:03;;;;;;;5.65;3.58;;;-5.00;99.90;;;;;;5018853;28;20102;-64
2021/12/26 09:07:29;;;;;;;5.82;3.58;;;-5.00;99.90;;;;;;5037093;28;20327;-65
2021/12/26 09:09:56;;;;;;;4.20;3.85;;;-4.90;99.90;;;;;;5036400;28;20504;-64
2021/12/26 09:12:22;;;;;;;4.45;3.78;;;-4.80;99.90;;;;;;5036245;28;20083;-65
2021/12/26 09:14:47;;;;;;;4.75;3.92;;;-4.80;99.90;;;;;;5035178;28;20132;-64
2021/12/26 09:17:13;;;;;;;5.10;3.83;;;-4.70;99.90;;;;;;5036416;28;20553;-64
2021/12/26 09:19:39;;;;;;;5.75;3.35;;;-4.70;99.90;;;;;;5033084;28;20702;-64
2021/12/26 09:22:07;;;;;;;3.80;2.78;;;-4.60;99.90;;;;;;5033153;28;20037;-64
2021/12/26 09:24:33;;;;;;;6.10;3.92;;;-4.50;99.90;;;;;;5033871;28;20041;-64
2021/12/26 09:26:59;;;;;;;3.40;3.13;;;-4.50;99.90;;;;;;5032688;28;20393;-64
2021/12/26 09:29:25;;;;;;;2.40;2.17;;;-4.40;99.90;;;;;;5034411;28;20056;-64
2021/12/26 09:31:51;;;;;;;3.42;2.53;;;-4.40;99.90;;;;;;5033393;28;20052;-65
2021/12/26 09:34:18;;;;;;;5.95;3.65;;;-4.30;99.90;;;;;;4682550;28;9999909;-65
2021/12/26 09:36:44;;;;;;;4.28;3.90;;;-4.30;99.90;;;;;;5031038;28;20045;-63
2021/12/26 09:39:10;;;;;;;4.00;3.58;;;-4.20;99.90;;;;;;5027065;28;20049;-64
2021/12/26 09:41:37;;;;;;;7.00;3.33;;;-4.20;99.90;;;;;;5030708;28;20391;-65
2021/12/26 09:44:03;;;;;;;4.38;3.38;;;-4.10;99.90;;;;;;5031915;28;20105;-65
2021/12/26 09:46:30;;;;;;;3.80;3.00;;;-4.10;99.90;;;;;;5032883;28;20052;-65
2021/12/26 09:48:56;;;;;;;5.55;3.67;;;-4.10;99.90;;;;;;5033141;28;20067;-65
2021/12/26 09:51:21;;;;;;;8.27;3.78;;;-4.00;99.90;;;;;;5012450;28;20076;-66
2021/12/26 09:53:47;;;;;;;4.93;3.88;;;-3.90;99.90;;;;;;5030521;28;20055;-64
2021/12/26 09:56:14;;;;;;;5.28;3.60;;;-3.90;99.90;;;;;;5031038;28;20124;-65
2021/12/26 09:58:52;;;;;;;5.45;3.42;;;-3.90;99.90;;;;;;5030845;28;20120;-64
2021/12/26 10:01:33;;;;;;;3.67;2.97;;;-3.80;99.90;;;;;;5028259;28;20059;-65
2021/12/26 10:04:23;;;;;;;2.60;2.20;;;-3.70;99.90;;;;;;5029492;28;20123;-65
2021/12/26 10:06:52;;;;;;;3.92;3.00;;;-3.60;99.90;;;;;;5028456;28;20041;-66
2021/12/26 10:09:20;;;;;;;6.18;3.42;;;-3.60;99.90;;;;;;5033592;28;20649;-67
2021/12/26 10:11:48;;;;;;;2.95;2.72;;;-3.50;99.90;;;;;;5015369;28;20053;-67
2021/12/26 10:14:19;;;;;;;5.55;4.30;;;-3.40;99.90;;;;;;5034205;28;20095;-67
2021/12/26 10:16:48;;;;;;;3.38;3.08;;;-3.40;99.90;;;;;;5033555;28;20041;-67
2021/12/26 10:19:14;;;;;;;3.30;3.08;;;-3.30;99.90;;;;;;5033725;28;20049;-67
2021/12/26 10:21:52;;;;;;;4.60;2.47;;;-3.20;99.90;;;;;;5016174;28;20049;-67
2021/12/26 10:24:43;;;;;;;5.20;3.72;;;-3.10;99.90;;;;;;5033609;28;20385;-67
2021/12/26 10:27:13;;;;;;;3.78;3.45;;;-3.10;99.90;;;;;;5029257;28;20747;-67
2021/12/26 10:29:45;;;;;;;4.07;2.85;;;-3.00;99.90;;;;;;5014437;28;20056;-67
2021/12/26 10:32:23;;;;;;;6.47;3.25;;;-2.90;99.90;;;;;;5032129;28;20565;-67
2021/12/26 10:34:52;;;;;;;3.30;2.63;;;-2.90;99.90;;;;;;5033318;28;20059;-67
2021/12/26 10:37:31;;;;;;;3.40;2.38;;;-2.80;99.90;;;;;;5033919;28;20041;-67
2021/12/26 10:40:06;;;;;;;4.30;3.17;;;-2.70;99.90;;;;;;5032545;28;20068;-67
2021/12/26 10:42:35;;;;;;;4.00;2.58;;;-2.70;99.90;;;;;;5031952;28;20049;-67
2021/12/26 10:45:09;;;;;;;3.75;3.40;;;-2.60;99.90;;;;;;5034559;28;20044;-67
2021/12/26 10:47:36;;;;;;;6.00;2.95;;;-2.50;99.90;;;;;;5016367;28;20626;-67
2021/12/26 10:50:18;;;;;;;3.35;3.15;;;-2.40;99.90;;;;;;5032997;28;20688;-67
2021/12/26 10:53:01;;;;;;;6.00;2.95;;;-2.40;99.90;;;;;;5032411;28;20052;-67
2021/12/26 10:55:37;;;;;;;4.63;3.25;;;-2.30;99.90;;;;;;5015087;28;20115;-67
2021/12/26 10:58:06;;;;;;;3.67;2.33;;;-2.20;99.90;;;;;;5014953;28;20123;-67
2021/12/26 11:00:36;;;;;;;3.40;2.90;;;-2.20;99.90;;;;;;5031873;28;20051;-68
2021/12/26 11:03:07;;;;;;;3.00;2.67;;;-2.10;99.90;;;;;;5033686;28;20048;-68
2021/12/26 11:05:35;;;;;;;3.58;2.80;;;-2.10;99.90;;;;;;5015096;28;20086;-68
2021/12/26 11:08:04;;;;;;;4.85;3.47;;;-2.10;99.90;;;;;;5035886;28;20868;-68
2021/12/26 11:10:44;;;;;;;5.63;3.13;;;-2.00;99.90;;;;;;5015840;28;20044;-68
2021/12/26 11:13:36;;;;;;;4.07;3.33;;;-2.00;99.90;;;;;;5034793;28;20179;-68
2021/12/26 11:16:06;;;;;;;4.57;2.75;;;-2.00;99.90;;;;;;5032913;28;20053;-68
2021/12/26 11:18:33;;;;;;;5.30;3.40;;;-1.90;99.90;;;;;;5034461;28;20059;-68
2021/12/26 11:21:04;;;;;;;3.75;3.45;;;-1.90;99.90;;;;;;5017540;28;20053;-69
2021/12/26 11:23:40;;;;;;;3.85;3.35;;;-1.80;99.90;;;;;;5033630;28;20076;-69
2021/12/26 11:26:09;;;;;;;2.95;2.65;;;-1.80;99.90;;;;;;5034674;28;20153;-69
2021/12/26 11:28:41;;;;;;;3.05;2.47;;;-0.50;99.90;;;;;;5016608;28;20057;-69
2021/12/26 11:31:15;;;;;;;3.47;2.63;;;-1.70;99.90;;;;;;5035303;28;20056;-70
2021/12/26 11:33:41;;;;;;;3.40;3.10;;;-1.70;99.90;;;;;;5016114;28;20331;-69
2021/12/26 11:36:09;;;;;;;4.20;3.15;;;-1.60;99.90;;;;;;5015552;28;20255;-69
2021/12/26 11:38:35;;;;;;;5.40;3.67;;;-1.60;99.90;;;;;;5016222;28;20071;-69
2021/12/26 11:41:05;;;;;;;4.45;2.72;;;-1.50;99.90;;;;;;5037559;28;20094;-65
2021/12/26 11:43:52;;;;;;;3.38;2.97;;;-1.40;99.90;;;;;;5016806;28;20841;-69
2021/12/26 11:46:54;;;;;;;2.83;2.30;;;-1.40;99.90;;;;;;5038671;28;20571;-69
2021/12/26 11:49:50;;;;;;;3.90;3.22;;;-1.30;99.90;;;;;;5040365;28;20052;-69
2021/12/26 11:52:42;;;;;;;4.68;2.90;;;-1.30;99.90;;;;;;5040209;28;20048;-69
2021/12/26 11:55:27;;;;;;;2.45;2.15;;;-1.20;99.90;;;;;;5034135;28;20049;-69
2021/12/26 11:58:36;;;;;;;7.35;3.15;;;-1.20;99.90;;;;;;5021169;28;20053;-69
2021/12/26 12:01:04;;;;;;;3.75;2.88;;;-1.20;99.90;;;;;;5004097;28;20175;-68
2021/12/26 12:03:31;;;;;;;5.47;3.20;;;-1.10;99.90;;;;;;5038243;28;20049;-69
2021/12/26 12:05:58;;;;;;;3.15;2.80;;;-1.10;99.90;;;;;;5020580;28;20077;-69
2021/12/26 12:08:23;;;;;;;4.57;3.30;;;-1.00;99.90;;;;;;5034082;28;20615;-68
2021/12/26 12:10:55;;;;;;;4.95;2.92;;;-1.00;99.90;;;;;;5033854;28;20056;-68
2021/12/26 12:13:26;;;;;;;7.75;3.22;;;-0.90;99.90;;;;;;5016721;28;20447;-68
2021/12/26 12:15:53;;;;;;;4.85;3.15;;;-0.90;99.90;;;;;;5034271;28;20048;-69
2021/12/26 12:18:31;;;;;;;3.47;3.17;;;-0.80;99.90;;;;;;5034666;28;20045;-69
2021/12/26 12:21:29;;;;;;;3.88;2.95;;;-0.80;99.90;;;;;;5033645;28;20755;-69
2021/12/26 12:24:00;;;;;;;5.05;3.50;;;-0.80;99.90;;;;;;5032540;28;20059;-69
2021/12/26 12:26:41;;;;;;;3.30;3.00;;;-0.70;99.90;;;;;;5033400;28;20044;-69
2021/12/26 12:29:08;;;;;;;3.60;2.80;;;-0.70;99.90;;;;;;5015030;28;20854;-68
2021/12/26 12:31:34;;;;;;;5.30;3.45;;;-0.70;99.90;;;;;;5033670;28;20049;-68
2021/12/26 12:34:13;;;;;;;5.78;3.70;;;-0.60;99.90;;;;;;5033269;28;20983;-68
2021/12/26 12:36:42;;;;;;;7.40;3.70;;;-0.60;99.90;;;;;;5031574;28;20060;-68
2021/12/26 12:39:16;;;;;;;4.97;3.10;;;-0.60;99.90;;;;;;5033185;28;20040;-68
2021/12/26 12:41:54;;;;;;;4.85;2.20;;;-0.50;99.90;;;;;;5031861;28;20049;-69
2021/12/26 12:44:34;;;;;;;5.03;3.17;;;-0.50;99.90;;;;;;5032624;28;20127;-69
2021/12/26 12:47:06;;;;;;;2.90;2.65;;;-0.50;99.90;;;;;;5035919;28;20052;-69
2021/12/26 12:49:51;;;;;;;3.97;2.67;;;-0.50;99.90;;;;;;5035176;28;20045;-69
2021/12/26 12:52:36;;;;;;;4.57;3.50;;;-0.50;99.90;;;;;;5034825;28;20110;-69
2021/12/26 12:55:07;;;;;;;3.92;2.90;;;-0.40;99.90;;;;;;5029555;28;20052;-68
2021/12/26 12:57:48;;;;;;;3.15;2.85;;;-0.40;99.90;;;;;;5033858;28;20618;-69